Terminal Aerodrome Forecast
Issued by NWS

Home | Current Version | Previous Version | Text Only | Print | Product List | Glossary On
Versions: 1 2 3 4 5 6 7 8 9 10 11 12 13 14 15 16 17 18 19 20 21 22 23 24 25 26 27 28 29 30 31 32 33 34 35 36 37 38 39 40 41 42 43 44 45 46
000
FTUS45 KGJT 241140
TAFRIL
TAF
KRIL 241140Z 2412/2512 VRB10G20KT 4SM -SHRA BR SCT050 BKN060
      TEMPO 2414/2416 00000KT 6SM BR SCT060 BKN090
     FM241800 27006KT P6SM VCTS BKN040CB
     FM242300 27015G25KT P6SM VCSH SCT045 BKN070
     FM250300 27008KT P6SM VCSH SCT050 BKN060
     FM250600 23005KT P6SM FEW060 SCT110=

USA.gov is the U.S. government's official web portal to all federal, state and local government web resources and services.